Time;durP1;ratioP1;P1;durP2;ratioP2;P2;SDS_P1;SDS_P2;PMS_P1;PMS_P2;Temp;Humidity;BMP_temperature;BMP_pressure;BME280_temperature;BME280_humidity;BME280_pressure;Samples;Min_cycle;Max_cycle;Signal;HPM_P1;HPM_P2
2022/10/26 00:00:33;;;;;;;;;;;19.50;99.90;;;;;;5056325;28;20074;-61
2022/10/26 00:03:00;;;;;;;;;;;19.50;99.90;;;;;;5050691;28;19928;-62
2022/10/26 00:05:27;;;;;;;;;;;19.50;99.90;;;;;;5028004;28;19932;-61
2022/10/26 00:07:54;;;;;;;;;;;19.50;99.90;;;;;;5050401;28;20400;-62
2022/10/26 00:10:21;;;;;;;;;;;19.50;99.90;;;;;;5055628;28;19927;-63
2022/10/26 00:12:49;;;;;;;;;;;19.50;99.90;;;;;;5053813;28;19929;-60
2022/10/26 00:15:18;;;;;;;;;;;19.50;99.90;;;;;;5051175;28;20301;-62
2022/10/26 00:17:45;;;;;;;;;;;19.50;99.90;;;;;;5049264;28;19981;-60
2022/10/26 00:20:13;;;;;;;;;;;19.50;99.90;;;;;;5048786;28;19925;-60
2022/10/26 00:22:40;;;;;;;;;;;19.50;99.90;;;;;;5052155;28;20448;-62
2022/10/26 00:25:07;;;;;;;;;;;19.50;99.90;;;;;;5048119;28;19936;-61
2022/10/26 00:27:35;;;;;;;;;;;19.50;99.90;;;;;;5049792;28;19940;-60
2022/10/26 00:30:05;;;;;;;;;;;19.40;99.90;;;;;;5052154;28;19924;-61
2022/10/26 00:32:32;;;;;;;;;;;19.50;99.90;;;;;;5049685;28;20011;-58
2022/10/26 00:35:00;;;;;;;;;;;19.50;99.90;;;;;;5050260;28;20398;-63
2022/10/26 00:37:47;;;;;;;;;;;19.40;99.90;;;;;;5045598;28;19951;-61
2022/10/26 00:40:15;;;;;;;;;;;19.50;99.90;;;;;;5053753;28;20612;-61
2022/10/26 00:42:42;;;;;;;;;;;19.50;99.90;;;;;;5051573;28;19931;-60
2022/10/26 00:45:15;;;;;;;;;;;19.40;99.90;;;;;;5050816;28;19936;-61
2022/10/26 00:47:44;;;;;;;;;;;19.50;99.90;;;;;;5047064;28;19931;-60
2022/10/26 00:50:16;;;;;;;;;;;19.50;99.90;;;;;;5047738;28;20407;-61
2022/10/26 00:52:43;;;;;;;;;;;19.40;99.90;;;;;;5053183;28;20299;-61
2022/10/26 00:55:10;;;;;;;;;;;19.40;99.90;;;;;;5052130;28;19925;-60
2022/10/26 00:57:37;;;;;;;;;;;19.40;99.90;;;;;;5048733;28;19920;-59
2022/10/26 01:00:06;;;;;;;;;;;19.40;99.90;;;;;;5037380;28;19944;-60
2022/10/26 01:02:33;;;;;;;;;;;19.40;99.90;;;;;;5046612;28;19936;-55
2022/10/26 01:05:01;;;;;;;;;;;19.40;99.90;;;;;;5049198;28;19925;-60
2022/10/26 01:07:28;;;;;;;;;;;19.40;99.90;;;;;;5048253;28;19931;-60
2022/10/26 01:09:56;;;;;;;;;;;19.40;99.90;;;;;;5032316;28;19935;-60
2022/10/26 01:12:23;;;;;;;;;;;19.40;99.90;;;;;;5049382;28;20320;-61
2022/10/26 01:14:50;;;;;;;;;;;19.40;99.90;;;;;;5051444;28;19924;-58
2022/10/26 01:17:33;;;;;;;;;;;19.40;99.90;;;;;;5052047;28;19924;-61
2022/10/26 01:20:19;;;;;;;;;;;19.40;99.90;;;;;;5054778;28;19924;-62
2022/10/26 01:23:05;;;;;;;;;;;19.40;99.90;;;;;;5040063;28;20411;-58
2022/10/26 01:25:51;;;;;;;;;;;19.40;99.90;;;;;;5048774;28;19924;-55
2022/10/26 01:28:29;;;;;;;;;;;19.40;99.90;;;;;;5044543;28;19924;-59
2022/10/26 01:30:59;;;;;;;;;;;19.40;99.90;;;;;;5050133;28;19931;-64
2022/10/26 01:33:32;;;;;;;;;;;19.40;99.90;;;;;;5046796;28;19925;-63
2022/10/26 01:36:08;;;;;;;;;;;19.40;99.90;;;;;;5026425;28;20324;-58
2022/10/26 01:38:41;;;;;;;;;;;19.40;99.90;;;;;;5049616;28;19931;-61
2022/10/26 01:41:14;;;;;;;;;;;19.40;99.90;;;;;;5048380;28;19931;-60
2022/10/26 01:43:45;;;;;;;;;;;19.40;99.90;;;;;;5047050;28;20415;-63
2022/10/26 01:46:13;;;;;;;;;;;19.40;99.90;;;;;;5050744;28;19921;-61
2022/10/26 01:48:41;;;;;;;;;;;19.40;99.90;;;;;;5050741;28;19929;-57
2022/10/26 01:51:09;;;;;;;;;;;19.40;99.90;;;;;;5048578;28;19924;-56
2022/10/26 01:53:40;;;;;;;;;;;19.40;99.90;;;;;;5048474;28;19924;-60
2022/10/26 01:56:17;;;;;;;;;;;19.40;99.90;;;;;;5047999;28;19925;-60
2022/10/26 01:58:54;;;;;;;;;;;19.40;99.90;;;;;;5045937;28;20157;-61
2022/10/26 02:01:41;;;;;;;;;;;19.30;99.90;;;;;;5047005;28;20494;-61
2022/10/26 02:04:14;;;;;;;;;;;19.40;99.90;;;;;;5046610;28;19925;-61
2022/10/26 02:06:48;;;;;;;;;;;19.40;99.90;;;;;;5047106;28;19931;-61
2022/10/26 02:09:35;;;;;;;;;;;19.30;99.90;;;;;;5047757;28;19936;-60
2022/10/26 02:12:05;;;;;;;;;;;19.40;99.90;;;;;;5000797;28;19924;-60
2022/10/26 02:14:38;;;;;;;;;;;19.30;99.90;;;;;;5052567;28;19924;-61
2022/10/26 02:17:05;;;;;;;;;;;19.30;99.90;;;;;;5043490;28;19931;-61
2022/10/26 02:19:37;;;;;;;;;;;19.30;99.90;;;;;;5048691;28;19927;-60
2022/10/26 02:22:16;;;;;;;;;;;19.30;99.90;;;;;;5045792;28;20460;-62
2022/10/26 02:24:44;;;;;;;;;;;19.40;99.90;;;;;;5039831;28;19925;-62
2022/10/26 02:27:19;;;;;;;;;;;19.40;99.90;;;;;;5029859;28;19932;-61
2022/10/26 02:29:48;;;;;;;;;;;19.30;99.90;;;;;;5047974;28;19928;-63
2022/10/26 02:32:16;;;;;;;;;;;19.40;99.90;;;;;;5046127;28;19925;-63
2022/10/26 02:34:44;;;;;;;;;;;19.30;99.90;;;;;;5051389;28;20406;-62
2022/10/26 02:37:14;;;;;;;;;;;19.40;99.90;;;;;;5047185;28;20415;-62
2022/10/26 02:39:42;;;;;;;;;;;19.30;99.90;;;;;;5037330;28;19929;-60
2022/10/26 02:42:09;;;;;;;;;;;19.40;99.90;;;;;;5046100;28;19928;-62
2022/10/26 02:44:50;;;;;;;;;;;19.40;99.90;;;;;;5048679;28;19924;-61
2022/10/26 02:47:18;;;;;;;;;;;19.40;99.90;;;;;;5050802;28;19928;-63
2022/10/26 02:49:46;;;;;;;;;;;19.30;99.90;;;;;;5051681;28;19924;-62
2022/10/26 02:52:27;;;;;;;;;;;19.30;99.90;;;;;;5050723;28;19928;-61
2022/10/26 02:55:12;;;;;;;;;;;19.30;99.90;;;;;;5053774;28;19921;-60
2022/10/26 02:57:41;;;;;;;;;;;19.30;99.90;;;;;;5051086;28;19921;-62
2022/10/26 03:00:09;;;;;;;;;;;19.30;99.90;;;;;;5049973;28;19931;-60
2022/10/26 03:02:42;;;;;;;;;;;19.30;99.90;;;;;;5048536;28;19935;-61
2022/10/26 03:05:23;;;;;;;;;;;19.30;99.90;;;;;;5050385;28;19924;-61
2022/10/26 03:07:50;;;;;;;;;;;19.30;99.90;;;;;;5050839;28;20308;-59
2022/10/26 03:10:17;;;;;;;;;;;19.30;99.90;;;;;;5050677;28;19925;-59
2022/10/26 03:12:44;;;;;;;;;;;19.30;99.90;;;;;;5051833;28;20376;-60
2022/10/26 03:15:12;;;;;;;;;;;19.30;99.90;;;;;;5049928;28;19924;-60
2022/10/26 03:17:39;;;;;;;;;;;19.30;99.90;;;;;;5049903;28;20407;-60
2022/10/26 03:20:06;;;;;;;;;;;19.30;99.90;;;;;;5051563;28;20282;-61
2022/10/26 03:22:33;;;;;;;;;;;19.30;99.90;;;;;;5047223;28;20447;-59
2022/10/26 03:25:01;;;;;;;;;;;19.30;99.90;;;;;;5053361;28;19929;-62
2022/10/26 03:27:28;;;;;;;;;;;19.30;99.90;;;;;;5051060;28;19951;-62
2022/10/26 03:29:56;;;;;;;;;;;19.30;99.90;;;;;;5050083;28;19931;-60
2022/10/26 03:32:23;;;;;;;;;;;19.30;99.90;;;;;;5049470;28;19932;-60
2022/10/26 03:34:50;;;;;;;;;;;19.30;99.90;;;;;;5050276;28;19924;-61
2022/10/26 03:37:17;;;;;;;;;;;19.30;99.90;;;;;;5031111;28;19929;-61
2022/10/26 03:39:44;;;;;;;;;;;19.30;99.90;;;;;;5051804;28;19925;-60
2022/10/26 03:42:11;;;;;;;;;;;19.30;99.90;;;;;;5045725;28;19925;-62
2022/10/26 03:44:39;;;;;;;;;;;19.30;99.90;;;;;;5052094;28;19928;-62
2022/10/26 03:47:06;;;;;;;;;;;19.30;99.90;;;;;;5050565;28;19932;-62
2022/10/26 03:49:33;;;;;;;;;;;19.30;99.90;;;;;;5051792;28;19927;-62
2022/10/26 03:52:00;;;;;;;;;;;19.20;99.90;;;;;;5052169;28;19931;-61
2022/10/26 03:54:27;;;;;;;;;;;19.30;99.90;;;;;;5054012;28;19935;-59
2022/10/26 03:56:54;;;;;;;;;;;19.30;99.90;;;;;;5031463;28;19921;-61
2022/10/26 03:59:21;;;;;;;;;;;19.30;99.90;;;;;;5050549;28;19935;-65
2022/10/26 04:01:48;;;;;;;;;;;19.30;99.90;;;;;;5039324;28;19928;-63
2022/10/26 04:04:21;;;;;;;;;;;19.30;99.90;;;;;;5051013;28;20335;-65
2022/10/26 04:06:48;;;;;;;;;;;19.30;99.90;;;;;;5054509;28;19927;-64
2022/10/26 04:09:15;;;;;;;;;;;19.30;99.90;;;;;;5050582;28;19935;-62
2022/10/26 04:11:42;;;;;;;;;;;19.40;99.90;;;;;;5073192;22;19935;-60
2022/10/26 04:14:09;;;;;;;;;;;19.40;99.90;;;;;;5045424;28;19931;-62
2022/10/26 04:16:36;;;;;;;;;;;19.50;99.90;;;;;;5048890;28;20312;-62
2022/10/26 04:19:04;;;;;;;;;;;19.50;99.90;;;;;;5033993;28;20380;-60
2022/10/26 04:21:34;;;;;;;;;;;19.50;99.90;;;;;;5045941;28;19929;-65
2022/10/26 04:24:01;;;;;;;;;;;19.50;99.90;;;;;;5009560;28;19932;-61
2022/10/26 04:26:28;;;;;;;;;;;19.50;99.90;;;;;;5029601;28;20633;-57
2022/10/26 04:28:55;;;;;;;;;;;19.50;99.90;;;;;;5008115;28;20490;-61
2022/10/26 04:31:22;;;;;;;;;;;19.50;99.90;;;;;;5038574;28;19924;-62
2022/10/26 04:33:49;;;;;;;;;;;19.50;99.90;;;;;;5041345;28;19925;-58
2022/10/26 04:36:16;;;;;;;;;;;19.50;99.90;;;;;;5034078;28;20419;-60
2022/10/26 04:38:44;;;;;;;;;;;19.50;99.90;;;;;;5038264;28;19925;-61
2022/10/26 04:41:11;;;;;;;;;;;19.50;99.90;;;;;;5032112;28;19925;-60
2022/10/26 04:43:38;;;;;;;;;;;19.50;99.90;;;;;;5035366;28;20436;-62
2022/10/26 04:46:05;;;;;;;;;;;19.50;99.90;;;;;;5027314;28;19925;-61
2022/10/26 04:48:32;;;;;;;;;;;19.50;99.90;;;;;;5029180;28;19932;-64
2022/10/26 04:50:59;;;;;;;;;;;19.50;99.90;;;;;;5014753;28;19952;-61
2022/10/26 04:53:27;;;;;;;;;;;19.50;99.90;;;;;;5028310;28;20312;-62
2022/10/26 04:55:57;;;;;;;;;;;19.50;99.90;;;;;;5028814;28;19929;-61
2022/10/26 04:58:25;;;;;;;;;;;19.50;99.90;;;;;;5013336;28;20235;-63
2022/10/26 05:00:52;;;;;;;;;;;19.50;99.90;;;;;;5025848;28;19925;-62
2022/10/26 05:03:19;;;;;;;;;;;19.50;99.90;;;;;;5033068;28;20302;-62
2022/10/26 05:05:46;;;;;;;;;;;19.50;99.90;;;;;;5022727;28;19931;-61
2022/10/26 05:08:13;;;;;;;;;;;19.50;99.90;;;;;;5038049;28;19929;-61
2022/10/26 05:10:41;;;;;;;;;;;19.60;99.90;;;;;;5032263;28;19935;-60
2022/10/26 05:13:09;;;;;;;;;;;19.60;99.90;;;;;;5036028;28;19932;-60
2022/10/26 05:15:36;;;;;;;;;;;19.70;99.90;;;;;;5048486;28;19924;-63
2022/10/26 05:18:04;;;;;;;;;;;19.70;99.90;;;;;;5042492;28;20462;-61
2022/10/26 05:20:32;;;;;;;;;;;19.70;99.90;;;;;;5030493;28;19925;-63
2022/10/26 05:23:00;;;;;;;;;;;19.70;99.90;;;;;;5029248;28;19925;-60
2022/10/26 05:25:29;;;;;;;;;;;19.80;99.90;;;;;;5015712;28;19936;-59
2022/10/26 05:27:59;;;;;;;;;;;19.80;99.90;;;;;;5028832;28;20266;-61
2022/10/26 05:30:27;;;;;;;;;;;19.80;99.90;;;;;;5035027;28;19924;-62
2022/10/26 05:32:55;;;;;;;;;;;19.80;99.90;;;;;;5031857;28;19929;-57
2022/10/26 05:35:22;;;;;;;;;;;19.80;99.90;;;;;;5026239;28;19925;-59
2022/10/26 05:37:49;;;;;;;;;;;19.70;99.90;;;;;;5034517;28;20313;-59
2022/10/26 05:40:16;;;;;;;;;;;19.70;99.90;;;;;;5034879;28;20059;-62
2022/10/26 05:42:44;;;;;;;;;;;19.70;99.90;;;;;;5034763;28;20288;-61
2022/10/26 05:45:11;;;;;;;;;;;19.70;99.90;;;;;;5035411;28;20316;-60
2022/10/26 05:47:40;;;;;;;;;;;19.80;99.90;;;;;;5027991;28;19932;-58
2022/10/26 05:50:07;;;;;;;;;;;19.80;99.90;;;;;;5022511;28;20304;-57
2022/10/26 05:52:39;;;;;;;;;;;19.80;99.90;;;;;;5029190;28;20305;-58
2022/10/26 05:55:08;;;;;;;;;;;19.80;99.90;;;;;;5027317;28;19975;-58
2022/10/26 05:57:35;;;;;;;;;;;19.70;99.90;;;;;;5031741;28;20004;-57
2022/10/26 06:00:06;;;;;;;;;;;19.70;99.90;;;;;;5029197;28;19925;-61
2022/10/26 06:02:45;;;;;;;;;;;19.80;99.90;;;;;;5027668;28;19932;-59
2022/10/26 06:05:17;;;;;;;;;;;19.80;99.90;;;;;;5030288;28;19921;-58
2022/10/26 06:07:44;;;;;;;;;;;19.80;99.90;;;;;;5027144;28;19936;-59
2022/10/26 06:10:12;;;;;;;;;;;19.80;99.90;;;;;;5026314;28;19932;-60
2022/10/26 06:12:39;;;;;;;;;;;19.80;99.90;;;;;;5024903;28;20666;-59
2022/10/26 06:15:08;;;;;;;;;;;19.80;99.90;;;;;;5028833;28;19925;-58
2022/10/26 06:17:41;;;;;;;;;;;19.80;99.90;;;;;;5021653;28;19932;-61
2022/10/26 06:20:15;;;;;;;;;;;19.80;99.90;;;;;;5026917;28;19925;-61
2022/10/26 06:23:00;;;;;;;;;;;19.80;99.90;;;;;;5025535;28;19928;-67
2022/10/26 06:25:45;;;;;;;;;;;19.80;99.90;;;;;;5025113;28;19929;-61
2022/10/26 06:28:16;;;;;;;;;;;19.80;99.90;;;;;;5024542;28;19925;-63
2022/10/26 06:30:43;;;;;;;;;;;19.90;99.90;;;;;;5034917;28;19936;-56
2022/10/26 06:33:11;;;;;;;;;;;19.90;99.90;;;;;;5030614;28;19928;-59
2022/10/26 06:35:57;;;;;;;;;;;19.90;99.90;;;;;;5023093;28;19929;-62
2022/10/26 06:38:26;;;;;;;;;;;19.90;99.90;;;;;;5033565;28;19935;-61
2022/10/26 06:40:55;;;;;;;;;;;19.90;99.90;;;;;;5024419;28;19988;-63
2022/10/26 06:43:26;;;;;;;;;;;19.90;99.90;;;;;;5035111;28;19921;-62
2022/10/26 06:46:12;;;;;;;;;;;19.90;99.90;;;;;;5029436;28;19936;-61
2022/10/26 06:48:52;;;;;;;;;;;19.90;99.90;;;;;;5021325;28;19925;-62
2022/10/26 06:51:20;;;;;;;;;;;19.90;99.90;;;;;;5032736;28;19932;-62
2022/10/26 06:54:10;;;;;;;;;;;19.90;99.90;;;;;;5029309;28;19952;-59
2022/10/26 06:56:37;;;;;;;;;;;19.90;99.90;;;;;;5020100;28;20511;-61
2022/10/26 06:59:12;;;;;;;;;;;19.90;99.90;;;;;;5030297;28;20375;-59
2022/10/26 07:01:39;;;;;;;;;;;19.90;99.90;;;;;;5016387;28;20292;-59
2022/10/26 07:04:06;;;;;;;;;;;19.90;99.90;;;;;;5028005;28;20021;-63
2022/10/26 07:06:33;;;;;;;;;;;19.80;99.90;;;;;;5023672;28;19921;-60
2022/10/26 07:09:05;;;;;;;;;;;19.80;99.90;;;;;;5018443;28;20249;-62
2022/10/26 07:11:32;;;;;;;;;;;19.70;99.90;;;;;;5026090;28;20332;-59
2022/10/26 07:13:59;;;;;;;;;;;19.70;99.90;;;;;;5031330;28;20369;-62
2022/10/26 07:16:27;;;;;;;;;;;19.70;99.90;;;;;;5032131;28;19935;-63
2022/10/26 07:18:55;;;;;;;;;;;19.70;99.90;;;;;;5040125;28;19929;-65
2022/10/26 07:21:22;;;;;;;;;;;19.70;99.90;;;;;;5038896;28;19936;-62
2022/10/26 07:23:51;;;;;;;;;;;19.70;99.90;;;;;;5028146;28;19929;-61
2022/10/26 07:26:18;;;;;;;;;;;19.80;99.90;;;;;;5031110;28;20388;-60
2022/10/26 07:28:47;;;;;;;;;;;19.80;99.90;;;;;;5024405;28;19928;-61
2022/10/26 07:31:14;;;;;;;;;;;19.80;99.90;;;;;;5022303;28;19925;-59
2022/10/26 07:33:41;;;;;;;;;;;19.90;99.90;;;;;;5033442;28;19968;-57
2022/10/26 07:36:09;;;;;;;;;;;19.90;99.90;;;;;;5010985;28;20381;-59
2022/10/26 07:38:37;;;;;;;;;;;19.90;99.90;;;;;;5036332;28;19925;-62
2022/10/26 07:41:05;;;;;;;;;;;19.90;99.90;;;;;;5026949;28;19929;-60
2022/10/26 07:43:32;;;;;;;;;;;19.90;99.90;;;;;;5028552;28;20639;-61
2022/10/26 07:45:59;;;;;;;;;;;19.90;99.90;;;;;;5026566;28;19925;-58
2022/10/26 07:48:26;;;;;;;;;;;19.90;99.90;;;;;;5037757;28;19924;-60
2022/10/26 07:50:53;;;;;;;;;;;19.90;99.90;;;;;;5032633;28;19924;-57
2022/10/26 07:53:20;;;;;;;;;;;20.00;99.90;;;;;;5021906;28;19929;-61
2022/10/26 07:55:54;;;;;;;;;;;19.90;99.90;;;;;;5014879;28;19924;-62
2022/10/26 07:58:24;;;;;;;;;;;20.00;99.90;;;;;;4991838;28;19932;-58
2022/10/26 08:00:52;;;;;;;;;;;19.70;99.90;;;;;;5021886;28;19929;-65
2022/10/26 08:03:20;;;;;;;;;;;19.40;99.90;;;;;;5027598;28;19929;-60
2022/10/26 08:05:50;;;;;;;;;;;19.20;99.90;;;;;;5023022;28;19924;-64
2022/10/26 08:08:17;;;;;;;;;;;19.30;99.90;;;;;;5027106;28;19929;-62
2022/10/26 08:10:44;;;;;;;;;;;19.40;99.90;;;;;;5015558;28;19932;-59
2022/10/26 08:13:12;;;;;;;;;;;19.50;99.90;;;;;;5025857;28;19944;-62
2022/10/26 08:15:39;;;;;;;;;;;19.60;99.90;;;;;;5033234;28;19925;-63
2022/10/26 08:18:07;;;;;;;;;;;19.60;99.90;;;;;;5033625;28;19929;-64
2022/10/26 08:20:34;;;;;;;;;;;19.60;99.90;;;;;;5030474;28;19932;-63
2022/10/26 08:23:04;;;;;;;;;;;19.60;99.90;;;;;;5027513;28;19920;-64
2022/10/26 08:25:32;;;;;;;;;;;19.70;99.90;;;;;;5007298;28;19932;-66
2022/10/26 08:28:02;;;;;;;;;;;19.70;99.90;;;;;;5037719;28;19925;-65
2022/10/26 08:30:29;;;;;;;;;;;19.70;99.90;;;;;;5032571;28;19931;-64
2022/10/26 08:32:57;;;;;;;;;;;19.60;99.90;;;;;;5033857;28;19924;-64
2022/10/26 08:35:24;;;;;;;;;;;19.60;99.90;;;;;;5019325;28;19984;-64
2022/10/26 08:37:52;;;;;;;;;;;19.60;99.90;;;;;;5033254;28;20384;-62
2022/10/26 08:40:39;;;;;;;;;;;19.60;99.90;;;;;;5026357;28;19924;-61
2022/10/26 08:43:12;;;;;;;;;;;19.60;99.90;;;;;;5026741;28;19932;-60
2022/10/26 08:45:43;;;;;;;;;;;19.70;99.90;;;;;;5020998;28;19925;-62
2022/10/26 08:48:13;;;;;;;;;;;19.70;99.90;;;;;;5021068;28;19939;-64
2022/10/26 08:50:44;;;;;;;;;;;19.70;99.90;;;;;;5012529;28;19925;-58
2022/10/26 08:53:17;;;;;;;;;;;19.70;99.90;;;;;;5011699;28;19925;-62
2022/10/26 08:55:46;;;;;;;;;;;19.70;99.90;;;;;;5022256;28;19924;-63
2022/10/26 08:58:15;;;;;;;;;;;19.60;99.90;;;;;;5029564;28;19925;-64
2022/10/26 09:00:43;;;;;;;;;;;19.70;99.90;;;;;;5024791;28;19933;-61
2022/10/26 09:03:11;;;;;;;;;;;19.70;99.90;;;;;;5026124;28;19925;-65
2022/10/26 09:05:45;;;;;;;;;;;19.70;99.90;;;;;;5024297;28;20045;-64
2022/10/26 09:08:18;;;;;;;;;;;19.70;99.90;;;;;;5027488;28;19925;-62
2022/10/26 09:11:02;;;;;;;;;;;19.70;99.90;;;;;;5027000;28;20169;-63
2022/10/26 09:13:48;;;;;;;;;;;19.70;99.90;;;;;;5023340;28;21217;-64
2022/10/26 09:16:33;;;;;;;;;;;19.70;99.90;;;;;;5027207;28;19921;-63
2022/10/26 09:19:17;;;;;;;;;;;19.70;99.90;;;;;;5022322;28;19928;-62
2022/10/26 09:21:44;;;;;;;;;;;19.60;99.90;;;;;;5037996;28;19976;-63
2022/10/26 09:24:11;;;;;;;;;;;19.60;99.90;;;;;;5031575;28;19929;-65
2022/10/26 09:26:44;;;;;;;;;;;19.60;99.90;;;;;;5037193;28;19924;-61
2022/10/26 09:29:12;;;;;;;;;;;19.70;99.90;;;;;;5030572;28;19927;-63
2022/10/26 09:31:52;;;;;;;;;;;19.70;99.90;;;;;;5036261;28;19933;-62
2022/10/26 09:34:31;;;;;;;;;;;19.70;99.90;;;;;;5046166;28;19921;-57
2022/10/26 09:36:59;;;;;;;;;;;19.70;99.90;;;;;;5021187;28;20340;-60
2022/10/26 09:39:35;;;;;;;;;;;19.70;99.90;;;;;;5016646;28;19929;-61
2022/10/26 09:42:21;;;;;;;;;;;19.70;99.90;;;;;;5016267;28;20334;-60
2022/10/26 09:44:50;;;;;;;;;;;19.70;99.90;;;;;;5038664;28;19920;-59
2022/10/26 09:47:26;;;;;;;;;;;19.70;99.90;;;;;;5030933;28;19920;-59
2022/10/26 09:49:55;;;;;;;;;;;19.80;99.90;;;;;;5038052;28;19925;-63
2022/10/26 09:52:22;;;;;;;;;;;19.70;99.90;;;;;;5034192;28;19924;-61
2022/10/26 09:54:49;;;;;;;;;;;19.80;99.90;;;;;;5031537;28;19920;-61
2022/10/26 09:57:18;;;;;;;;;;;19.80;99.90;;;;;;5014314;28;20776;-60
2022/10/26 09:59:51;;;;;;;;;;;19.80;99.90;;;;;;5027820;28;19925;-60
2022/10/26 10:02:33;;;;;;;;;;;19.80;99.90;;;;;;5029750;28;19921;-62
2022/10/26 10:05:01;;;;;;;;;;;19.80;99.90;;;;;;5025627;28;20403;-61
2022/10/26 10:07:28;;;;;;;;;;;19.80;99.90;;;;;;5023256;28;20303;-60
2022/10/26 10:10:05;;;;;;;;;;;19.80;99.90;;;;;;5033902;28;20420;-60
2022/10/26 10:12:32;;;;;;;;;;;19.80;99.90;;;;;;5027469;28;19976;-61
2022/10/26 10:14:59;;;;;;;;;;;19.90;99.90;;;;;;5021918;28;20513;-64
2022/10/26 10:17:26;;;;;;;;;;;19.90;99.90;;;;;;5024563;28;19951;-66
2022/10/26 10:19:53;;;;;;;;;;;19.90;99.90;;;;;;5021224;28;19921;-60
2022/10/26 10:22:24;;;;;;;;;;;19.80;99.90;;;;;;5029723;28;19935;-62
2022/10/26 10:24:54;;;;;;;;;;;19.90;99.90;;;;;;5033683;28;19920;-61
2022/10/26 10:27:22;;;;;;;;;;;19.90;99.90;;;;;;5024426;28;20347;-63
2022/10/26 10:29:50;;;;;;;;;;;19.80;99.90;;;;;;5031266;28;19921;-63
2022/10/26 10:32:21;;;;;;;;;;;19.90;99.90;;;;;;5027865;28;20420;-65
2022/10/26 10:34:49;;;;;;;;;;;19.90;99.90;;;;;;5038080;28;19921;-63
2022/10/26 10:37:22;;;;;;;;;;;19.90;99.90;;;;;;5040250;28;19929;-62
2022/10/26 10:39:50;;;;;;;;;;;19.90;99.90;;;;;;5045345;28;20414;-63
2022/10/26 10:42:19;;;;;;;;;;;19.90;99.90;;;;;;5034806;28;19965;-65
2022/10/26 10:44:50;;;;;;;;;;;19.90;99.90;;;;;;5031622;28;20292;-60
2022/10/26 10:47:20;;;;;;;;;;;19.90;99.90;;;;;;5029863;28;19929;-63
2022/10/26 10:49:52;;;;;;;;;;;19.90;99.90;;;;;;5031001;28;20422;-62
2022/10/26 10:52:30;;;;;;;;;;;19.90;99.90;;;;;;5033951;28;19925;-62
2022/10/26 10:55:24;;;;;;;;;;;19.90;99.90;;;;;;5031632;28;19925;-63
2022/10/26 10:58:26;;;;;;;;;;;19.90;99.90;;;;;;5028110;28;19924;-63
2022/10/26 11:00:55;;;;;;;;;;;19.90;99.90;;;;;;4947855;28;19926;-59
2022/10/26 11:03:42;;;;;;;;;;;19.90;99.90;;;;;;5001252;28;19936;-65
2022/10/26 11:06:09;;;;;;;;;;;19.90;99.90;;;;;;5029238;28;19947;-66
2022/10/26 11:08:45;;;;;;;;;;;19.90;99.90;;;;;;5039974;28;19936;-65
2022/10/26 11:11:13;;;;;;;;;;;19.90;99.90;;;;;;5035562;28;19928;-60
2022/10/26 11:13:49;;;;;;;;;;;19.90;99.90;;;;;;5038271;28;19929;-62
2022/10/26 11:16:22;;;;;;;;;;;19.90;99.90;;;;;;5041410;22;20513;-65
2022/10/26 11:18:59;;;;;;;;;;;19.90;99.90;;;;;;5046968;28;19947;-64
2022/10/26 11:21:30;;;;;;;;;;;19.90;99.90;;;;;;5046046;28;20031;-66
2022/10/26 11:24:19;;;;;;;;;;;19.80;99.90;;;;;;5046282;28;20316;-63
2022/10/26 11:27:06;;;;;;;;;;;19.80;99.90;;;;;;5039403;28;20344;-62
2022/10/26 11:29:48;;;;;;;;;;;19.80;99.90;;;;;;5027707;28;19924;-67
2022/10/26 11:32:21;;;;;;;;;;;19.90;99.90;;;;;;5026406;28;19926;-64
2022/10/26 11:34:59;;;;;;;;;;;19.90;99.90;;;;;;5028859;28;20332;-63
2022/10/26 11:37:32;;;;;;;;;;;19.90;99.90;;;;;;5037434;28;19932;-63
2022/10/26 11:39:59;;;;;;;;;;;19.90;99.90;;;;;;5018588;28;19925;-63
2022/10/26 11:42:36;;;;;;;;;;;20.00;99.90;;;;;;5027124;28;19932;-64
2022/10/26 11:45:16;;;;;;;;;;;20.00;99.90;;;;;;5031555;28;19929;-66
2022/10/26 11:47:56;;;;;;;;;;;20.00;99.90;;;;;;5034364;28;19925;-66
2022/10/26 11:50:46;;;;;;;;;;;20.00;99.90;;;;;;5035189;28;19931;-65
2022/10/26 11:53:18;;;;;;;;;;;20.00;99.90;;;;;;5023746;28;19932;-66
2022/10/26 11:55:48;;;;;;;;;;;20.00;99.90;;;;;;5038121;28;19932;-63
2022/10/26 11:58:15;;;;;;;;;;;20.00;99.90;;;;;;5035325;28;19925;-64
2022/10/26 12:00:48;;;;;;;;;;;20.00;99.90;;;;;;5038733;28;19951;-62
2022/10/26 12:03:17;;;;;;;;;;;20.00;99.90;;;;;;5025053;28;19939;-64
2022/10/26 12:05:48;;;;;;;;;;;19.90;99.90;;;;;;5030353;28;19925;-62
2022/10/26 12:08:22;;;;;;;;;;;20.00;99.90;;;;;;5030941;28;19932;-64
2022/10/26 12:11:01;;;;;;;;;;;19.90;99.90;;;;;;5026470;28;19931;-63
2022/10/26 12:13:37;;;;;;;;;;;19.90;99.90;;;;;;5029654;28;20320;-64
2022/10/26 12:16:04;;;;;;;;;;;20.00;99.90;;;;;;5023818;28;19925;-61
2022/10/26 12:18:40;;;;;;;;;;;20.00;99.90;;;;;;5032068;28;20428;-64
2022/10/26 12:21:25;;;;;;;;;;;20.00;99.90;;;;;;5035824;28;19928;-63
2022/10/26 12:23:55;;;;;;;;;;;20.00;99.90;;;;;;5035960;28;19932;-64
2022/10/26 12:26:23;;;;;;;;;;;20.00;99.90;;;;;;5028666;28;19925;-63
2022/10/26 12:29:02;;;;;;;;;;;20.00;99.90;;;;;;5032639;28;20166;-63
2022/10/26 12:31:35;;;;;;;;;;;20.10;99.90;;;;;;5026251;28;20328;-60
2022/10/26 12:34:10;;;;;;;;;;;20.10;99.90;;;;;;5039527;28;19929;-63
2022/10/26 12:36:46;;;;;;;;;;;20.10;99.90;;;;;;5029076;28;19936;-58
2022/10/26 12:39:30;;;;;;;;;;;20.00;99.90;;;;;;5034061;28;19929;-60
2022/10/26 12:42:18;;;;;;;;;;;20.10;99.90;;;;;;5026366;28;20480;-64
2022/10/26 12:44:45;;;;;;;;;;;20.10;99.90;;;;;;5027319;28;19925;-62
2022/10/26 12:47:32;;;;;;;;;;;20.10;99.90;;;;;;5028031;28;19928;-65
2022/10/26 12:49:59;;;;;;;;;;;20.10;99.90;;;;;;4991479;28;19944;-65
2022/10/26 12:52:31;;;;;;;;;;;20.10;99.90;;;;;;5029597;28;19931;-64
2022/10/26 12:55:10;;;;;;;;;;;20.10;99.90;;;;;;5035757;28;20648;-63
2022/10/26 12:57:46;;;;;;;;;;;20.10;99.90;;;;;;5039732;28;19932;-63
2022/10/26 13:00:16;;;;;;;;;;;20.10;99.90;;;;;;5023583;28;19928;-61
2022/10/26 13:03:06;;;;;;;;;;;20.10;99.90;;;;;;5024326;28;19925;-66
2022/10/26 13:05:36;;;;;;;;;;;20.20;99.90;;;;;;5027877;28;19925;-68
2022/10/26 13:08:05;;;;;;;;;;;20.20;99.90;;;;;;5030154;28;20468;-66
2022/10/26 13:10:33;;;;;;;;;;;20.30;99.90;;;;;;5030805;28;19932;-64
2022/10/26 13:13:01;;;;;;;;;;;20.30;99.90;;;;;;5031468;28;19925;-67
2022/10/26 13:15:31;;;;;;;;;;;20.30;99.90;;;;;;5020968;28;19921;-67
2022/10/26 13:18:01;;;;;;;;;;;20.40;99.90;;;;;;5015796;28;19929;-66
2022/10/26 13:20:29;;;;;;;;;;;20.40;99.90;;;;;;5037868;28;19932;-64
2022/10/26 13:22:56;;;;;;;;;;;20.40;99.90;;;;;;5025052;28;19925;-66
2022/10/26 13:25:25;;;;;;;;;;;20.40;99.90;;;;;;5028254;28;20364;-66
2022/10/26 13:27:58;;;;;;;;;;;20.40;99.90;;;;;;5028991;28;20359;-64
2022/10/26 13:30:31;;;;;;;;;;;20.40;99.90;;;;;;5017071;28;19929;-63
2022/10/26 13:32:59;;;;;;;;;;;20.40;99.90;;;;;;5033193;28;19921;-66
2022/10/26 13:35:26;;;;;;;;;;;20.40;99.90;;;;;;5016379;28;19933;-62
2022/10/26 13:37:54;;;;;;;;;;;20.40;99.90;;;;;;5027223;28;20415;-64
2022/10/26 13:40:28;;;;;;;;;;;20.40;99.90;;;;;;5034775;28;20392;-65
2022/10/26 13:42:56;;;;;;;;;;;20.30;99.90;;;;;;5035967;28;19924;-66
2022/10/26 13:45:26;;;;;;;;;;;20.40;99.90;;;;;;5029752;28;19925;-68
2022/10/26 13:48:06;;;;;;;;;;;20.40;99.90;;;;;;5033371;28;19932;-68
2022/10/26 13:50:39;;;;;;;;;;;20.30;99.90;;;;;;5026916;28;19928;-69
2022/10/26 13:53:12;;;;;;;;;;;20.30;99.90;;;;;;5037346;28;19932;-65
2022/10/26 13:55:47;;;;;;;;;;;20.30;99.90;;;;;;5032760;28;19944;-65
2022/10/26 13:58:15;;;;;;;;;;;20.30;99.90;;;;;;5036571;28;19931;-67
2022/10/26 14:00:58;;;;;;;;;;;20.30;99.90;;;;;;5011056;28;19928;-66
2022/10/26 14:03:25;;;;;;;;;;;20.30;99.90;;;;;;5028567;28;20389;-65
2022/10/26 14:05:53;;;;;;;;;;;20.30;99.90;;;;;;5025919;28;19921;-67
2022/10/26 14:08:20;;;;;;;;;;;20.30;99.90;;;;;;5011928;28;20675;-67
2022/10/26 14:10:52;;;;;;;;;;;20.30;99.90;;;;;;5033403;28;19960;-67
2022/10/26 14:13:22;;;;;;;;;;;20.30;99.90;;;;;;5035650;28;19920;-69
2022/10/26 14:15:49;;;;;;;;;;;20.30;99.90;;;;;;5040224;28;19929;-66
2022/10/26 14:18:18;;;;;;;;;;;20.30;99.90;;;;;;5014428;28;19925;-65
2022/10/26 14:20:52;;;;;;;;;;;20.30;99.90;;;;;;5038688;28;19924;-66
2022/10/26 14:23:35;;;;;;;;;;;20.30;99.90;;;;;;5028543;28;19925;-68
2022/10/26 14:26:03;;;;;;;;;;;20.30;99.90;;;;;;5032061;28;19924;-62
2022/10/26 14:28:32;;;;;;;;;;;20.30;99.90;;;;;;5027672;28;20456;-67
2022/10/26 14:31:11;;;;;;;;;;;20.30;99.90;;;;;;5037276;28;20705;-65
2022/10/26 14:33:44;;;;;;;;;;;20.30;99.90;;;;;;5025868;28;20309;-67
2022/10/26 14:36:11;;;;;;;;;;;20.30;99.90;;;;;;5036838;28;20666;-67
2022/10/26 14:38:42;;;;;;;;;;;20.20;99.90;;;;;;5030998;28;19924;-65